Marcellus, New York
Current Conditions -  °F | °C
As of 10:13 AM on Thursday 18 Dec 2014 (Local Time) from KSYR Reporting Station
Light Snow Light Snow  
Wind Chill: 23°   Ceiling: 1300
Heat Index: 32°   Visibility: 2.5mi
Dew Point: 29°   Wind: 12mph
Humidity: 88%   Direction: 270°W
Pressure: 30.02"   Gusts: NA
Location:  42.98°N, 76.34°W
Report Text: KSYR 181513Z 27010KT 2 1/2SM -SN BR BKN013 OVC024 00/M02 A3002 RMK AO2 VIS 1 1/2 NW P0000 T00001017 $
Loading
Personal Weather Stations






























Interactive Weather Map New forecast layout! Learn more

10-Day Weather Forecast

Advertisements
Track Severe Weather on mobile